Time;durP1;ratioP1;P1;durP2;ratioP2;P2;SDS_P1;SDS_P2;PMS_P1;PMS_P2;Temp;Humidity;BMP_temperature;BMP_pressure;BME280_temperature;BME280_humidity;BME280_pressure;Samples;Min_cycle;Max_cycle;Signal;HPM_P1;HPM_P2
2022/09/05 00:02:04;;;;;;;6.60;4.40;;;19.30;99.90;;;;;;5072159;28;20054;-68
2022/09/05 00:04:37;;;;;;;6.68;4.00;;;19.40;99.90;;;;;;5073234;28;20044;-68
2022/09/05 00:07:11;;;;;;;4.47;4.03;;;19.30;99.90;;;;;;5073221;28;20052;-68
2022/09/05 00:09:37;;;;;;;6.15;4.00;;;19.40;99.90;;;;;;5072921;28;20135;-67
2022/09/05 00:12:05;;;;;;;5.70;3.92;;;19.10;99.90;;;;;;5072759;28;20144;-68
2022/09/05 00:14:49;;;;;;;6.80;3.90;;;19.20;99.90;;;;;;5072929;28;20052;-69
2022/09/05 00:17:36;;;;;;;7.60;4.00;;;19.10;99.90;;;;;;5072993;28;20048;-68
2022/09/05 00:20:20;;;;;;;4.15;3.75;;;19.20;99.90;;;;;;5072998;28;20076;-66
2022/09/05 00:22:55;;;;;;;8.70;4.72;;;19.30;99.90;;;;;;5072575;28;20068;-69
2022/09/05 00:25:39;;;;;;;5.53;3.80;;;19.20;99.90;;;;;;5072871;28;20045;-67
2022/09/05 00:28:17;;;;;;;6.45;4.50;;;19.30;99.90;;;;;;5071600;28;20052;-68
2022/09/05 00:31:13;;;;;;;5.28;4.10;;;19.30;99.90;;;;;;5072742;28;20063;-69
2022/09/05 00:34:00;;;;;;;8.25;4.07;;;19.00;99.90;;;;;;5072636;28;20110;-67
2022/09/05 00:36:37;;;;;;;;;;;19.00;99.90;;;;;;5073088;28;20123;-67
2022/09/05 00:39:12;;;;;;;5.13;4.38;;;19.10;99.90;;;;;;5072050;28;19924;-69
2022/09/05 00:41:39;;;;;;;6.80;4.75;;;18.90;99.90;;;;;;5072583;28;20092;-70
2022/09/05 00:44:05;;;;;;;9.13;4.97;;;18.80;99.90;;;;;;5072513;28;20051;-68
2022/09/05 00:46:39;;;;;;;7.15;4.47;;;18.90;99.90;;;;;;5072459;28;20040;-67
2022/09/05 00:49:25;;;;;;;8.55;4.97;;;19.00;99.90;;;;;;5072475;28;20045;-66
2022/09/05 00:52:06;;;;;;;9.68;5.38;;;19.10;99.90;;;;;;5072102;28;20123;-68
2022/09/05 00:54:50;;;;;;;7.10;4.72;;;18.70;99.90;;;;;;5072278;28;20614;-67
2022/09/05 00:57:37;;;;;;;8.27;5.10;;;18.80;99.90;;;;;;5071062;28;20049;-69
2022/09/05 01:00:14;;;;;;;7.28;4.95;;;18.80;99.90;;;;;;5072276;28;20055;-69
2022/09/05 01:03:15;;;;;;;6.50;5.15;;;18.90;99.90;;;;;;5072377;28;20090;-68
2022/09/05 01:05:53;;;;;;;8.88;5.03;;;18.50;99.90;;;;;;5029847;28;20046;-68
2022/09/05 01:08:26;;;;;;;6.32;4.72;;;18.70;99.90;;;;;;5066486;28;20068;-70
2022/09/05 01:11:04;;;;;;;7.75;5.00;;;18.50;99.90;;;;;;5071528;28;20485;-68
2022/09/05 01:13:50;;;;;;;6.57;4.70;;;18.50;99.90;;;;;;5071782;28;20488;-69
2022/09/05 01:17:00;;;;;;;5.18;4.60;;;18.60;99.90;;;;;;5072116;28;20044;-67
2022/09/05 01:20:09;;;;;;;6.07;4.50;;;18.50;99.90;;;;;;5071966;28;20491;-68
2022/09/05 01:23:02;;;;;;;4.95;4.45;;;18.60;99.90;;;;;;5068472;28;20151;-68
2022/09/05 01:25:39;;;;;;;6.13;4.60;;;18.40;99.90;;;;;;5071964;28;20087;-68
2022/09/05 01:28:23;;;;;;;7.63;5.18;;;18.50;99.90;;;;;;5072010;28;20044;-67
2022/09/05 01:31:00;;;;;;;8.73;4.53;;;18.40;99.90;;;;;;5071927;28;20480;-68
2022/09/05 01:33:47;;;;;;;8.23;5.00;;;18.30;99.90;;;;;;5070673;28;20095;-70
2022/09/05 01:36:38;;;;;;;7.97;5.05;;;18.30;99.90;;;;;;5071575;28;20055;-68
2022/09/05 01:39:37;;;;;;;5.43;4.60;;;18.30;99.90;;;;;;5071485;28;20404;-69
2022/09/05 01:42:39;;;;;;;6.68;4.65;;;18.20;99.90;;;;;;5071779;28;20493;-69
2022/09/05 01:45:29;;;;;;;9.32;5.25;;;18.20;99.90;;;;;;5071726;28;20056;-68
2022/09/05 01:48:30;;;;;;;11.85;5.00;;;18.10;99.90;;;;;;5051453;28;20056;-65
2022/09/05 01:51:17;;;;;;;9.32;4.60;;;18.30;99.90;;;;;;5070251;28;20049;-67
2022/09/05 01:53:43;;;;;;;;;;;18.00;99.90;;;;;;5070826;28;20400;-68
2022/09/05 01:56:20;;;;;;;6.37;4.67;;;17.90;99.90;;;;;;5071630;28;19925;-69
2022/09/05 01:59:04;;;;;;;6.40;4.38;;;17.80;99.90;;;;;;5071592;28;20045;-68
2022/09/05 02:02:29;;;;;;;9.70;4.90;;;18.00;99.90;;;;;;5071652;28;20400;-68
2022/09/05 02:05:10;;;;;;;7.55;5.43;;;18.00;99.90;;;;;;5028697;28;20045;-68
2022/09/05 02:08:03;;;;;;;8.60;5.35;;;18.00;99.90;;;;;;5067002;28;20049;-69
2022/09/05 02:10:54;;;;;;;6.57;5.20;;;17.60;99.90;;;;;;5071567;28;20152;-67
2022/09/05 02:13:35;;;;;;;6.93;5.50;;;17.90;99.90;;;;;;5071476;28;20206;-68
2022/09/05 02:16:04;;;;;;;6.30;5.70;;;17.40;99.90;;;;;;5071364;28;20460;-69
2022/09/05 02:18:51;;;;;;;7.68;5.43;;;17.80;99.90;;;;;;5071136;28;20056;-69
2022/09/05 02:21:32;;;;;;;8.15;5.68;;;17.60;99.90;;;;;;5071401;28;20055;-68
2022/09/05 02:24:23;;;;;;;6.00;5.40;;;17.40;99.90;;;;;;5073717;28;20045;-68
2022/09/05 02:27:08;;;;;;;6.13;5.10;;;17.50;99.90;;;;;;5075146;28;20056;-67
2022/09/05 02:29:46;;;;;;;6.50;5.25;;;17.50;99.90;;;;;;5073604;28;20061;-70
2022/09/05 02:32:20;;;;;;;5.85;5.25;;;17.50;99.90;;;;;;5074982;28;20131;-69
2022/09/05 02:35:09;;;;;;;7.25;5.68;;;17.30;99.90;;;;;;5073281;28;20388;-66
2022/09/05 02:37:49;;;;;;;7.93;5.90;;;17.10;99.90;;;;;;5073586;28;20055;-67
2022/09/05 02:40:22;;;;;;;8.30;5.78;;;17.30;99.90;;;;;;5074807;28;20484;-69
2022/09/05 02:42:51;;;;;;;7.32;6.00;;;17.30;99.90;;;;;;5074828;28;20097;-67
2022/09/05 02:45:45;;;;;;;6.53;5.93;;;17.50;99.90;;;;;;5074610;28;20082;-67
2022/09/05 02:48:24;;;;;;;7.15;5.90;;;16.90;99.90;;;;;;5052519;28;20052;-67
2022/09/05 02:51:14;;;;;;;10.95;6.13;;;17.20;99.90;;;;;;5074718;28;20058;-68
2022/09/05 02:53:45;;;;;;;8.65;6.30;;;17.10;99.90;;;;;;5074640;28;20476;-67
2022/09/05 02:56:22;;;;;;;8.32;6.68;;;17.00;99.90;;;;;;5074891;28;20059;-67
2022/09/05 02:59:15;;;;;;;7.93;5.90;;;17.10;99.90;;;;;;5074639;28;20052;-67
2022/09/05 03:02:00;;;;;;;7.13;6.43;;;17.40;99.90;;;;;;5068342;28;20056;-66
2022/09/05 03:04:36;;;;;;;7.90;6.07;;;16.80;99.90;;;;;;5074175;28;20048;-69
2022/09/05 03:07:11;;;;;;;8.02;6.65;;;16.90;99.90;;;;;;5074684;28;20495;-69
2022/09/05 03:09:46;;;;;;;7.00;6.25;;;17.10;99.90;;;;;;5074420;28;20059;-67
2022/09/05 03:13:02;;;;;;;9.15;6.18;;;16.80;99.90;;;;;;5074332;28;20052;-67
2022/09/05 03:15:27;;;;;;;8.18;6.90;;;16.50;99.90;;;;;;5031569;28;20049;-67
2022/09/05 03:18:21;;;;;;;10.77;6.40;;;16.50;99.90;;;;;;5064643;28;20060;-66
2022/09/05 03:20:55;;;;;;;7.15;6.45;;;16.60;99.90;;;;;;5074106;28;20055;-68
2022/09/05 03:23:21;;;;;;;9.82;6.43;;;16.80;99.90;;;;;;5074029;28;20056;-67
2022/09/05 03:26:12;;;;;;;7.93;6.70;;;16.70;99.90;;;;;;5074050;28;20052;-68
2022/09/05 03:29:00;;;;;;;6.70;6.05;;;16.50;99.90;;;;;;5074023;28;20075;-67
2022/09/05 03:31:55;;;;;;;7.45;6.55;;;16.30;99.90;;;;;;5073723;28;20053;-68
2022/09/05 03:34:53;;;;;;;8.13;6.53;;;16.40;99.90;;;;;;5073537;28;20397;-69
2022/09/05 03:37:37;;;;;;;;;;;18.00;99.90;;;;;;5073981;28;20506;-68
2022/09/05 03:40:44;;;;;;;10.65;7.22;;;16.70;99.90;;;;;;5073748;28;19928;-69
2022/09/05 03:43:28;;;;;;;7.25;6.55;;;16.50;99.90;;;;;;5067908;28;20119;-68
2022/09/05 03:46:21;;;;;;;7.45;6.75;;;16.50;99.90;;;;;;5073467;28;20045;-68
2022/09/05 03:49:08;;;;;;;7.50;6.70;;;16.30;99.90;;;;;;5073982;28;20055;-67
2022/09/05 03:51:34;;;;;;;7.00;6.15;;;16.20;99.90;;;;;;5073491;28;20437;-67
2022/09/05 03:54:09;;;;;;;;;;;16.50;99.90;;;;;;5073842;28;20047;-67
2022/09/05 03:56:55;;;;;;;9.75;6.72;;;16.30;99.90;;;;;;5073516;28;19921;-68
2022/09/05 03:59:41;;;;;;;8.52;6.93;;;16.40;99.90;;;;;;5073419;28;20048;-69
2022/09/05 04:02:10;;;;;;;7.28;6.57;;;16.30;99.90;;;;;;5073235;28;20052;-66
2022/09/05 04:04:47;;;;;;;7.40;6.65;;;16.40;99.90;;;;;;5073173;28;20088;-70
2022/09/05 04:08:05;;;;;;;9.43;7.03;;;15.90;99.90;;;;;;5073211;28;20044;-68
2022/09/05 04:10:53;;;;;;;10.68;6.85;;;16.50;99.90;;;;;;5030682;28;20132;-68
2022/09/05 04:13:53;;;;;;;11.75;7.20;;;16.00;99.90;;;;;;5030145;28;20079;-67
2022/09/05 04:16:40;;;;;;;6.82;6.13;;;16.00;99.90;;;;;;5069603;28;20472;-67
2022/09/05 04:19:33;;;;;;;8.45;6.50;;;15.90;99.90;;;;;;5073115;28;20044;-69
2022/09/05 04:22:44;;;;;;;9.27;6.32;;;15.80;99.90;;;;;;5072976;28;20542;-69
2022/09/05 04:25:16;;;;;;;9.45;6.88;;;16.10;99.90;;;;;;5049328;28;20057;-68
2022/09/05 04:27:59;;;;;;;8.43;6.25;;;16.00;99.90;;;;;;5071469;28;20077;-69
2022/09/05 04:30:55;;;;;;;8.60;6.50;;;15.90;99.90;;;;;;5071065;28;20060;-65
2022/09/05 04:33:27;;;;;;;8.95;6.28;;;15.90;99.90;;;;;;5072731;28;20044;-68
2022/09/05 04:36:17;;;;;;;7.28;6.57;;;16.10;99.90;;;;;;5072651;28;20148;-68
2022/09/05 04:38:44;;;;;;;7.65;6.82;;;16.00;99.90;;;;;;5072644;28;20194;-69
2022/09/05 04:41:12;;;;;;;8.43;7.32;;;15.60;99.90;;;;;;5072569;28;20047;-69
2022/09/05 04:43:45;;;;;;;9.77;6.93;;;16.20;99.90;;;;;;5072237;28;20044;-69
2022/09/05 04:46:22;;;;;;;10.65;6.90;;;15.90;99.90;;;;;;5072044;28;20044;-68
2022/09/05 04:49:08;;;;;;;;;;;15.80;99.90;;;;;;5073233;28;20420;-68
2022/09/05 04:51:58;;;;;;;8.43;6.30;;;15.70;99.90;;;;;;5072426;28;20118;-67
2022/09/05 04:54:51;;;;;;;7.28;6.57;;;16.10;99.90;;;;;;5072016;28;20481;-68
2022/09/05 04:57:23;;;;;;;9.90;6.72;;;15.70;99.90;;;;;;5072291;28;20091;-68
2022/09/05 04:59:51;;;;;;;7.53;6.75;;;15.80;99.90;;;;;;5071965;28;20048;-68
2022/09/05 05:02:38;;;;;;;9.43;6.85;;;15.90;99.90;;;;;;5071898;28;20401;-69
2022/09/05 05:05:15;;;;;;;11.23;7.37;;;15.80;99.90;;;;;;5072199;28;20119;-68
2022/09/05 05:07:58;;;;;;;9.57;6.55;;;15.50;99.90;;;;;;5072196;28;20041;-67
2022/09/05 05:10:41;;;;;;;8.02;7.30;;;16.00;99.90;;;;;;5072118;28;20037;-68
2022/09/05 05:13:28;;;;;;;8.23;6.68;;;15.70;99.90;;;;;;5071927;28;20044;-67
2022/09/05 05:16:20;;;;;;;8.00;7.20;;;15.80;99.90;;;;;;5071995;28;20049;-69
2022/09/05 05:18:57;;;;;;;10.88;6.97;;;15.80;99.90;;;;;;5072043;28;20044;-68
2022/09/05 05:21:26;;;;;;;8.85;6.80;;;15.70;99.90;;;;;;5072015;28;20037;-69
2022/09/05 05:23:58;;;;;;;8.80;7.72;;;15.80;99.90;;;;;;5071609;28;20606;-69
2022/09/05 05:26:46;;;;;;;9.60;7.45;;;15.50;99.90;;;;;;5071931;28;20048;-69
2022/09/05 05:29:14;;;;;;;8.60;7.28;;;15.50;99.90;;;;;;5071480;28;20097;-68
2022/09/05 05:31:56;;;;;;;10.98;7.30;;;15.60;99.90;;;;;;5071588;28;20511;-68
2022/09/05 05:34:50;;;;;;;9.25;7.25;;;15.70;99.90;;;;;;5071858;28;20044;-68
2022/09/05 05:37:19;;;;;;;10.20;7.35;;;15.80;99.90;;;;;;5066615;28;20044;-68
2022/09/05 05:40:18;;;;;;;8.90;6.93;;;15.90;99.90;;;;;;5071263;28;20052;-68
2022/09/05 05:42:45;;;;;;;8.00;7.20;;;15.50;99.90;;;;;;5071315;28;20044;-68
2022/09/05 05:45:24;;;;;;;10.30;7.15;;;15.80;99.90;;;;;;5071439;28;20111;-65
2022/09/05 05:47:57;;;;;;;8.55;7.53;;;16.00;99.90;;;;;;5066213;28;20182;-69
2022/09/05 05:50:42;;;;;;;11.23;7.40;;;16.00;99.90;;;;;;5063964;28;20582;-70
2022/09/05 05:53:28;;;;;;;11.75;7.30;;;15.90;99.90;;;;;;5067668;28;20497;-68
2022/09/05 05:56:36;;;;;;;9.50;7.33;;;16.10;99.90;;;;;;5067483;28;20113;-68
2022/09/05 05:59:17;;;;;;;8.45;7.18;;;15.80;99.90;;;;;;5073085;28;20291;-68
2022/09/05 06:02:18;;;;;;;9.80;6.90;;;16.20;99.90;;;;;;5070065;28;20492;-68
2022/09/05 06:05:07;;;;;;;8.65;6.63;;;16.70;99.90;;;;;;5073457;28;20141;-69
2022/09/05 06:08:20;;;;;;;7.72;6.80;;;15.90;99.90;;;;;;5072135;28;20186;-69
2022/09/05 06:11:23;;;;;;;9.15;6.78;;;16.00;99.90;;;;;;5060135;28;20355;-67
2022/09/05 06:14:01;;;;;;;9.40;6.80;;;16.40;99.90;;;;;;5069587;28;20127;-73
2022/09/05 06:17:04;;;;;;;12.43;7.15;;;16.30;99.90;;;;;;5071738;28;20052;-73
2022/09/05 06:20:00;;;;;;;10.95;7.70;;;16.60;99.90;;;;;;5071068;28;20409;-73
2022/09/05 06:22:49;;;;;;;10.00;6.88;;;16.60;99.90;;;;;;5070289;28;20378;-73
2022/09/05 06:25:46;;;;;;;12.43;7.60;;;16.90;99.90;;;;;;5073641;28;20037;-74
2022/09/05 06:28:29;;;;;;;10.70;6.97;;;16.80;99.90;;;;;;5072519;28;20048;-72
2022/09/05 06:31:15;;;;;;;9.30;6.57;;;16.70;99.90;;;;;;5070008;28;20053;-71
2022/09/05 06:33:57;;;;;;;7.85;6.95;;;17.10;99.90;;;;;;5071106;28;20472;-70
2022/09/05 06:37:10;;;;;;;8.68;7.22;;;17.10;99.90;;;;;;5069944;28;20052;-72
2022/09/05 06:39:55;;;;;;;9.82;7.22;;;17.20;99.90;;;;;;5062573;28;20057;-72
2022/09/05 06:42:41;;;;;;;8.57;7.22;;;17.60;99.90;;;;;;5072647;28;20489;-70
2022/09/05 06:45:43;;;;;;;8.77;7.22;;;17.60;99.90;;;;;;5070940;28;20131;-74
2022/09/05 06:48:20;;;;;;;8.35;7.10;;;18.10;99.90;;;;;;5070259;28;20072;-69
2022/09/05 06:51:12;;;;;;;8.50;6.88;;;17.80;99.90;;;;;;5073448;28;20476;-68
2022/09/05 06:54:04;;;;;;;10.43;6.75;;;18.00;99.90;;;;;;5056276;28;20489;-73
2022/09/05 06:56:44;;;;;;;12.00;7.68;;;17.90;99.90;;;;;;5050207;28;20041;-69
2022/09/05 07:05:09;;;;;;;10.57;7.17;;;18.50;99.90;;;;;;5109396;27;20388;-69
2022/09/05 07:07:41;;;;;;;9.23;7.15;;;18.60;99.90;;;;;;5109674;28;20059;-70
2022/09/05 07:10:21;;;;;;;10.63;7.47;;;19.00;99.90;;;;;;5109109;28;20039;-73
2022/09/05 07:12:52;;;;;;;16.33;7.65;;;18.50;99.90;;;;;;5109284;28;20073;-68
2022/09/05 07:15:52;;;;;;;11.00;7.35;;;18.80;99.90;;;;;;5109645;28;20162;-69
2022/09/05 07:18:33;;;;;;;11.45;7.40;;;18.80;99.90;;;;;;5109535;28;20055;-69
2022/09/05 07:21:06;;;;;;;7.93;7.13;;;19.00;99.90;;;;;;5109302;28;20500;-69
2022/09/05 07:24:01;;;;;;;10.18;7.30;;;19.10;99.90;;;;;;5109023;28;20093;-67
2022/09/05 07:26:31;;;;;;;8.15;7.35;;;19.20;99.90;;;;;;5108327;28;20056;-72
2022/09/05 07:29:03;;;;;;;8.35;7.45;;;19.30;99.90;;;;;;5109306;28;20475;-75
2022/09/05 07:31:34;;;;;;;11.82;7.47;;;19.00;99.90;;;;;;5109367;28;20062;-79
2022/09/05 07:34:23;;;;;;;10.85;7.40;;;19.50;99.90;;;;;;5122867;28;20527;-70
2022/09/05 07:36:55;;;;;;;10.93;7.72;;;19.70;99.90;;;;;;5127347;27;20047;-70
2022/09/05 07:39:39;;;;;;;10.82;8.50;;;19.60;99.90;;;;;;5106731;28;20832;-70
2022/09/05 07:42:10;;;;;;;12.10;8.05;;;19.70;99.90;;;;;;5108686;28;20140;-68
2022/09/05 07:44:43;;;;;;;10.35;8.45;;;20.10;99.90;;;;;;5105231;28;20044;-68
2022/09/05 07:47:27;;;;;;;8.85;7.75;;;19.80;99.90;;;;;;5108047;28;20048;-72
2022/09/05 07:49:55;;;;;;;13.23;8.63;;;20.30;99.90;;;;;;5107693;28;20044;-70
2022/09/05 07:52:24;;;;;;;13.07;8.38;;;20.30;99.90;;;;;;5108081;28;20047;-71
2022/09/05 07:54:52;;;;;;;13.68;8.90;;;20.40;99.90;;;;;;5107348;28;20047;-72
2022/09/05 07:57:24;;;;;;;11.98;8.50;;;20.50;99.90;;;;;;5108517;28;20048;-71
2022/09/05 08:00:00;;;;;;;12.90;8.63;;;20.40;99.90;;;;;;5108512;28;20113;-69
2022/09/05 08:02:26;;;;;;;12.52;8.77;;;20.50;99.90;;;;;;5108633;28;20044;-70
2022/09/05 08:05:01;;;;;;;11.18;9.00;;;20.30;99.90;;;;;;5108475;28;20056;-69
2022/09/05 08:07:36;;;;;;;11.07;8.70;;;20.80;99.90;;;;;;5106977;28;20361;-69
2022/09/05 08:10:16;;;;;;;11.75;8.80;;;20.80;99.90;;;;;;5108785;28;20070;-69
2022/09/05 08:12:53;;;;;;;16.10;9.20;;;21.10;99.90;;;;;;5108306;28;20488;-69
2022/09/05 08:15:25;;;;;;;10.35;8.45;;;21.20;99.90;;;;;;5100375;28;20062;-71
2022/09/05 08:17:57;;;;;;;13.75;9.75;;;21.20;99.90;;;;;;5093387;28;20487;-70
2022/09/05 08:20:44;;;;;;;12.02;8.73;;;21.40;99.90;;;;;;5094586;28;20071;-70
2022/09/05 08:23:30;;;;;;;10.95;8.90;;;21.60;99.90;;;;;;5092796;28;20040;-70
2022/09/05 08:26:03;;;;;;;10.77;8.43;;;21.40;99.90;;;;;;5092883;28;20052;-69
2022/09/05 08:28:38;;;;;;;9.57;8.45;;;21.60;99.90;;;;;;5089858;28;20062;-74
2022/09/05 08:31:19;;;;;;;15.48;8.82;;;21.50;99.90;;;;;;5092193;28;20044;-69
2022/09/05 08:33:47;;;;;;;10.52;8.75;;;21.80;99.90;;;;;;5093361;28;20087;-72
2022/09/05 08:36:29;;;;;;;13.48;9.13;;;21.40;99.90;;;;;;5092785;28;20048;-71
2022/09/05 08:38:59;;;;;;;14.77;8.70;;;22.00;99.90;;;;;;5091973;28;20051;-72
2022/09/05 08:41:30;;;;;;;10.85;8.65;;;22.20;99.90;;;;;;5093555;28;20056;-73
2022/09/05 08:44:13;;;;;;;10.25;8.73;;;22.00;99.90;;;;;;5092801;28;20040;-68
2022/09/05 08:46:52;;;;;;;9.95;8.85;;;22.40;99.90;;;;;;5094176;28;20047;-70
2022/09/05 08:49:31;;;;;;;11.13;8.27;;;22.40;99.90;;;;;;5094132;28;20043;-71
2022/09/05 08:52:13;;;;;;;10.07;8.88;;;22.30;99.90;;;;;;5093808;28;20040;-72
2022/09/05 08:54:47;;;;;;;9.18;8.27;;;22.80;99.90;;;;;;5094072;28;20043;-71
2022/09/05 08:57:21;;;;;;;13.43;8.55;;;23.00;99.90;;;;;;5093905;28;20048;-72
2022/09/05 09:00:02;;;;;;;9.45;8.13;;;22.60;99.90;;;;;;5093892;28;20048;-69
2022/09/05 09:02:59;;;;;;;22.25;7.25;;;23.00;99.90;;;;;;5093809;28;20040;-70
2022/09/05 09:05:46;;;;;;;8.83;6.87;;;23.30;99.90;;;;;;5093460;28;20119;-70
2022/09/05 09:08:26;;;;;;;9.90;7.68;;;23.30;99.90;;;;;;5093464;28;20626;-72
2022/09/05 09:10:59;;;;;;;12.90;7.70;;;23.50;99.90;;;;;;5093512;28;20109;-71
2022/09/05 09:13:43;;;;;;;9.20;7.10;;;23.80;99.90;;;;;;5093397;28;20052;-71
2022/09/05 09:16:35;;;;;;;11.73;7.10;;;23.80;99.90;;;;;;5093581;28;20052;-70
2022/09/05 09:19:45;;;;;;;9.73;7.90;;;24.00;99.90;;;;;;5093299;28;20059;-67
2022/09/05 09:22:32;;;;;;;8.65;7.10;;;24.30;99.90;;;;;;5070404;28;20063;-70
2022/09/05 09:25:14;;;;;;;8.38;6.95;;;24.30;99.90;;;;;;5093395;28;20047;-71
2022/09/05 09:28:12;;;;;;;9.85;7.20;;;24.50;99.90;;;;;;5092480;28;20373;-70
2022/09/05 09:30:43;;;;;;;10.65;7.38;;;24.50;99.90;;;;;;5093249;28;20055;-68
2022/09/05 09:33:15;;;;;;;7.43;5.95;;;24.20;99.90;;;;;;5093298;28;20103;-71
2022/09/05 09:36:01;;;;;;;7.05;6.00;;;24.60;99.90;;;;;;5093189;28;20593;-72
2022/09/05 09:38:47;;;;;;;6.45;5.85;;;24.60;99.90;;;;;;5093113;28;20083;-69
2022/09/05 09:41:47;;;;;;;10.52;5.47;;;25.00;99.90;;;;;;5093169;28;20084;-70
2022/09/05 09:45:06;;;;;;;5.80;4.60;;;25.30;99.90;;;;;;5092999;28;20123;-71
2022/09/05 09:47:54;;;;;;;7.45;5.15;;;25.20;99.90;;;;;;5092972;28;20093;-68
2022/09/05 09:50:31;;;;;;;5.57;4.38;;;25.80;99.90;;;;;;5090487;28;20048;-71
2022/09/05 09:53:18;;;;;;;5.30;4.53;;;25.70;99.90;;;;;;5090487;28;20036;-70
2022/09/05 09:55:52;;;;;;;8.25;4.68;;;25.50;99.90;;;;;;5087841;28;20055;-69
2022/09/05 09:58:37;;;;;;;9.40;4.28;;;25.90;99.90;;;;;;5086889;28;20345;-69
2022/09/05 10:01:33;;;;;;;7.75;3.92;;;25.60;99.90;;;;;;5091483;28;20071;-69
2022/09/05 10:04:37;;;;;;;8.55;4.25;;;25.80;99.90;;;;;;5087858;28;20097;-66
2022/09/05 10:07:39;;;;;;;5.03;4.00;;;26.00;99.90;;;;;;5078229;28;20127;-68
2022/09/05 10:10:20;;;;;;;4.97;4.10;;;26.00;99.90;;;;;;5067865;28;20052;-70
2022/09/05 10:13:10;;;;;;;11.23;5.43;;;26.10;99.90;;;;;;5091776;28;20070;-68
2022/09/05 10:15:47;;;;;;;8.38;4.13;;;26.20;99.80;;;;;;5072211;28;20049;-71
2022/09/05 10:18:25;;;;;;;9.35;4.38;;;26.10;99.90;;;;;;5071946;28;20048;-70
2022/09/05 10:21:19;;;;;;;5.95;4.40;;;26.10;99.90;;;;;;5072262;28;20067;-71
2022/09/05 10:23:54;;;;;;;5.82;4.15;;;26.40;99.90;;;;;;5088522;28;20499;-69
2022/09/05 10:27:07;;;;;;;7.17;4.23;;;26.40;99.70;;;;;;5092470;28;20044;-71
2022/09/05 10:30:05;;;;;;;4.30;3.90;;;26.50;99.90;;;;;;5088203;28;20095;-65
2022/09/05 10:32:59;;;;;;;6.85;4.35;;;26.70;99.90;;;;;;5092075;28;20047;-68
2022/09/05 10:35:34;;;;;;;5.25;4.00;;;26.60;99.70;;;;;;5090298;28;20055;-69
2022/09/05 10:38:05;;;;;;;4.82;4.20;;;26.70;99.40;;;;;;5091910;28;20075;-70
2022/09/05 10:40:34;;;;;;;6.15;3.30;;;26.60;99.40;;;;;;5091874;28;20095;-69
2022/09/05 10:43:18;;;;;;;7.75;3.97;;;26.60;99.80;;;;;;5091810;28;20044;-68
2022/09/05 10:45:54;;;;;;;8.52;3.40;;;26.80;99.10;;;;;;5092161;28;20044;-70
2022/09/05 10:48:45;;;;;;;7.72;3.45;;;27.20;98.90;;;;;;5091896;28;20135;-69
2022/09/05 10:51:38;;;;;;;4.35;3.00;;;27.10;98.60;;;;;;5091725;28;20694;-70
2022/09/05 10:54:37;;;;;;;6.43;3.75;;;27.50;99.20;;;;;;5074094;28;20055;-66
2022/09/05 10:57:35;;;;;;;8.20;3.42;;;27.70;97.90;;;;;;5089535;28;20056;-72
2022/09/05 11:00:08;;;;;;;5.03;2.92;;;27.80;98.40;;;;;;5089512;28;20070;-72
2022/09/05 11:02:40;;;;;;;4.25;2.70;;;27.80;98.70;;;;;;5090111;28;20847;-69
2022/09/05 11:05:25;;;;;;;3.22;2.90;;;27.90;98.30;;;;;;5091808;28;20047;-68
2022/09/05 11:08:12;;;;;;;6.13;3.50;;;27.80;98.60;;;;;;5091588;28;20106;-70
2022/09/05 11:10:57;;;;;;;6.97;3.30;;;28.40;97.90;;;;;;5091409;28;20800;-67
2022/09/05 11:13:41;;;;;;;7.55;2.90;;;28.20;97.20;;;;;;5091869;28;20051;-70
2022/09/05 11:16:25;;;;;;;5.53;2.95;;;28.20;97.10;;;;;;5091135;28;20475;-69
2022/09/05 11:18:57;;;;;;;4.40;2.67;;;28.00;97.30;;;;;;5091549;28;20094;-70
2022/09/05 11:21:37;;;;;;;5.88;2.70;;;28.20;97.20;;;;;;5091558;28;20571;-68
2022/09/05 11:24:32;;;;;;;5.70;2.80;;;28.10;97.30;;;;;;5091580;28;20036;-70
2022/09/05 11:27:19;;;;;;;3.63;2.45;;;28.30;96.20;;;;;;5091239;28;20079;-69
2022/09/05 11:29:52;;;;;;;7.13;2.53;;;28.20;96.20;;;;;;5090505;28;20048;-75
2022/09/05 11:32:27;;;;;;;2.88;2.38;;;28.50;96.60;;;;;;5091435;28;20428;-69
2022/09/05 11:35:05;;;;;;;10.25;2.75;;;28.70;96.60;;;;;;5078629;28;20083;-68
2022/09/05 11:37:37;;;;;;;4.63;2.60;;;28.50;96.20;;;;;;5091427;28;20097;-70
2022/09/05 11:40:17;;;;;;;13.02;2.53;;;28.60;95.70;;;;;;5089190;28;20051;-69
2022/09/05 11:43:17;;;;;;;4.00;2.13;;;29.10;95.20;;;;;;5073177;28;20069;-70
2022/09/05 11:45:54;;;;;;;5.47;2.60;;;28.80;94.30;;;;;;5090787;28;20515;-72
2022/09/05 11:48:19;;;;;;;5.30;2.40;;;28.50;94.20;;;;;;5091210;28;20052;-66
2022/09/05 11:51:03;;;;;;;8.90;2.55;;;28.80;95.40;;;;;;5093273;28;20059;-69
2022/09/05 11:53:54;;;;;;;3.53;2.38;;;28.60;95.10;;;;;;5093988;28;20079;-71
2022/09/05 11:56:47;;;;;;;5.00;2.00;;;29.00;94.10;;;;;;5094993;28;20086;-71
2022/09/05 11:59:31;;;;;;;3.13;2.03;;;28.90;93.30;;;;;;5094558;28;20123;-72
2022/09/05 12:02:07;;;;;;;2.35;2.05;;;28.70;94.20;;;;;;5094578;28;20055;-72
2022/09/05 12:04:45;;;;;;;2.97;1.98;;;28.60;94.00;;;;;;5094663;28;20052;-71
2022/09/05 12:07:33;;;;;;;3.03;1.90;;;28.90;93.20;;;;;;5094900;28;20094;-72
2022/09/05 12:10:30;;;;;;;3.20;1.80;;;29.30;92.70;;;;;;5094708;28;20460;-71
2022/09/05 12:13:33;;;;;;;2.70;2.22;;;29.30;92.40;;;;;;5094341;28;20040;-68
2022/09/05 12:16:00;;;;;;;5.13;2.20;;;29.60;93.10;;;;;;5094811;28;20052;-70
2022/09/05 12:18:42;;;;;;;7.90;2.20;;;29.20;93.60;;;;;;5094835;28;20364;-73
2022/09/05 12:21:30;;;;;;;5.55;2.30;;;29.30;94.10;;;;;;5094633;28;20130;-74
2022/09/05 12:24:06;;;;;;;3.83;2.05;;;29.30;93.50;;;;;;5093857;28;20048;-71
2022/09/05 12:27:02;;;;;;;5.28;2.30;;;29.40;94.30;;;;;;5094400;28;20142;-71
2022/09/05 12:29:34;;;;;;;5.80;2.60;;;29.60;93.50;;;;;;5094208;28;20131;-71
2022/09/05 12:32:01;;;;;;;4.82;2.60;;;29.40;93.70;;;;;;5094279;28;20062;-69
2022/09/05 12:34:51;;;;;;;2.85;2.50;;;29.20;93.90;;;;;;5094086;28;20050;-71
2022/09/05 12:37:22;;;;;;;7.07;2.70;;;29.40;93.30;;;;;;5094556;28;20073;-70
2022/09/05 12:39:54;;;;;;;2.65;2.00;;;29.20;93.60;;;;;;5094009;28;20139;-73
2022/09/05 12:42:28;;;;;;;4.03;2.40;;;29.40;93.00;;;;;;5093975;28;20097;-72
2022/09/05 12:45:17;;;;;;;2.63;2.42;;;29.20;93.30;;;;;;5094026;28;20047;-68
2022/09/05 12:48:08;;;;;;;4.50;2.40;;;29.40;92.70;;;;;;5093966;28;20052;-74
2022/09/05 12:50:55;;;;;;;3.10;2.42;;;29.20;92.70;;;;;;5093891;28;20052;-71
2022/09/05 12:53:23;;;;;;;11.07;2.92;;;29.80;92.60;;;;;;5093918;28;20400;-71
2022/09/05 12:56:03;;;;;;;4.63;2.28;;;29.40;93.50;;;;;;5093843;28;20051;-70
2022/09/05 12:58:31;;;;;;;3.42;2.40;;;29.60;93.20;;;;;;5093515;28;20060;-70
2022/09/05 13:01:15;;;;;;;3.58;2.65;;;29.70;93.60;;;;;;5093891;28;20126;-71
2022/09/05 13:03:58;;;;;;;12.10;3.35;;;29.80;93.10;;;;;;5093272;28;20135;-72
2022/09/05 13:06:37;;;;;;;6.25;2.70;;;29.50;92.10;;;;;;5104655;28;20051;-70
2022/09/05 13:09:15;;;;;;;7.78;2.72;;;29.70;92.00;;;;;;5113159;28;20069;-70
2022/09/05 13:11:49;;;;;;;6.07;2.65;;;30.00;92.30;;;;;;5113569;28;20056;-70
2022/09/05 13:14:28;;;;;;;6.40;2.70;;;30.10;92.30;;;;;;5113855;28;20044;-70
2022/09/05 13:16:56;;;;;;;4.20;2.50;;;29.90;91.80;;;;;;5113824;28;20052;-70
2022/09/05 13:19:46;;;;;;;4.70;2.50;;;29.80;92.60;;;;;;5113316;28;20517;-72
2022/09/05 13:22:15;;;;;;;4.07;2.15;;;30.10;92.30;;;;;;5112646;28;20057;-72
2022/09/05 13:24:45;;;;;;;4.72;2.33;;;30.40;92.80;;;;;;5113496;28;20043;-70
2022/09/05 13:27:23;;;;;;;4.03;2.35;;;30.30;92.80;;;;;;5113639;28;20476;-72
2022/09/05 13:29:56;;;;;;;6.90;2.40;;;30.20;92.20;;;;;;5113555;28;20073;-71
2022/09/05 13:32:31;;;;;;;7.70;2.50;;;30.20;92.60;;;;;;5113698;28;20047;-70
2022/09/05 13:35:14;;;;;;;3.50;2.30;;;30.20;92.20;;;;;;5113545;28;20048;-70
2022/09/05 13:37:43;;;;;;;4.78;2.63;;;30.00;92.70;;;;;;5113438;28;20138;-70
2022/09/05 13:40:18;;;;;;;3.90;2.30;;;30.20;92.50;;;;;;5113359;28;20052;-69
2022/09/05 13:43:08;;;;;;;4.93;2.40;;;30.60;91.40;;;;;;5113396;28;20084;-70
2022/09/05 13:46:02;;;;;;;3.58;2.33;;;31.00;91.10;;;;;;5113503;28;20130;-70
2022/09/05 13:48:55;;;;;;;4.35;2.10;;;30.70;91.60;;;;;;5092201;27;20499;-72
2022/09/05 13:51:34;;;;;;;6.15;2.53;;;30.90;91.50;;;;;;5113293;28;20044;-69
2022/09/05 13:54:28;;;;;;;5.20;2.22;;;30.80;91.10;;;;;;5113235;27;20080;-71
2022/09/05 13:57:15;;;;;;;2.95;2.30;;;30.90;90.70;;;;;;5113211;28;20051;-72
2022/09/05 14:00:02;;;;;;;3.90;2.60;;;30.80;90.80;;;;;;5113274;28;20035;-71
2022/09/05 14:02:37;;;;;;;4.80;2.55;;;31.10;91.30;;;;;;5112899;28;20468;-70
2022/09/05 14:05:18;;;;;;;;;;;31.30;90.90;;;;;;5113492;28;20418;-70
2022/09/05 14:08:13;;;;;;;3.95;2.40;;;31.00;90.80;;;;;;5113069;28;19923;-72
2022/09/05 14:11:08;;;;;;;18.48;3.13;;;30.80;90.80;;;;;;5112920;28;20135;-71
2022/09/05 14:13:52;;;;;;;4.55;2.50;;;30.60;91.10;;;;;;5112797;28;20168;-68